createdAt,value
2024-05-09T00:00:39.867Z,214.65
2024-05-09T00:03:09.141Z,250.00
2024-05-09T00:05:37.475Z,232.23
2024-05-09T00:08:04.746Z,191.38
2024-05-09T00:10:36.541Z,215.88
2024-05-09T00:13:06.166Z,182.10
2024-05-09T00:15:33.962Z,203.52
2024-05-09T00:18:01.619Z,201.93
2024-05-09T00:20:36.803Z,207.00
2024-05-09T00:23:07.669Z,184.50
2024-05-09T00:25:35.437Z,190.93
2024-05-09T00:28:02.536Z,172.20
2024-05-09T00:30:34.469Z,185.25
2024-05-09T00:33:05.171Z,183.15
2024-05-09T00:35:33.019Z,183.98
2024-05-09T00:38:00.113Z,139.38
2024-05-09T00:40:37.606Z,202.77
2024-05-09T00:43:07.405Z,154.40
2024-05-09T00:45:34.634Z,156.13
2024-05-09T00:48:02.609Z,179.05
2024-05-09T00:50:35.833Z,150.60
2024-05-09T00:53:05.948Z,158.98
2024-05-09T00:55:33.760Z,143.60
2024-05-09T00:58:00.786Z,155.75
2024-05-09T01:00:35.670Z,158.50
2024-05-09T01:03:06.694Z,147.27
2024-05-09T01:05:34.702Z,150.73
2024-05-09T01:08:01.847Z,150.68
2024-05-09T01:10:34.290Z,146.73
2024-05-09T01:13:03.116Z,182.90
2024-05-09T01:15:29.967Z,132.48
2024-05-09T01:17:57.556Z,178.07
2024-05-09T01:20:36.403Z,154.77
2024-05-09T01:23:08.905Z,144.30
2024-05-09T01:25:36.023Z,149.85
2024-05-09T01:28:02.887Z,153.55
2024-05-09T01:30:34.763Z,151.32
2024-05-09T01:33:04.475Z,146.15
2024-05-09T01:35:31.942Z,155.98
2024-05-09T01:37:58.880Z,148.15
2024-05-09T01:40:36.065Z,169.98
2024-05-09T01:43:06.125Z,143.93
2024-05-09T01:45:33.093Z,154.13
2024-05-09T01:48:00.265Z,146.48
2024-05-09T01:52:56.819Z,188.38
2024-05-09T01:55:23.685Z,155.05
2024-05-09T01:57:51.592Z,150.88
2024-05-09T02:00:26.339Z,152.88
2024-05-09T02:03:01.972Z,135.15
2024-05-09T02:05:29.138Z,170.50
2024-05-09T02:07:55.975Z,135.38
2024-05-09T02:10:26.604Z,144.45
2024-05-09T02:12:59.000Z,137.70
2024-05-09T02:15:25.789Z,152.75
2024-05-09T02:17:52.641Z,136.13
2024-05-09T02:20:29.963Z,135.93
2024-05-09T02:23:03.641Z,124.28
2024-05-09T02:25:30.665Z,128.18
2024-05-09T02:27:57.472Z,141.70
2024-05-09T02:30:31.093Z,152.38
2024-05-09T02:33:06.137Z,137.85
2024-05-09T02:35:33.206Z,158.40
2024-05-09T02:38:00.129Z,159.35
2024-05-09T02:40:35.582Z,152.65
2024-05-09T02:43:05.190Z,140.85
2024-05-09T02:45:32.074Z,141.43
2024-05-09T02:47:59.206Z,149.10
2024-05-09T02:50:34.143Z,158.00
2024-05-09T02:53:05.529Z,144.05
2024-05-09T02:55:32.562Z,142.40
2024-05-09T02:57:59.556Z,142.00
2024-05-09T03:00:34.703Z,151.82
2024-05-09T03:03:08.073Z,110.05
2024-05-09T03:05:35.733Z,129.85
2024-05-09T03:08:02.806Z,143.88
2024-05-09T03:10:35.470Z,137.05
2024-05-09T03:13:07.871Z,143.30
2024-05-09T03:15:34.658Z,127.57
2024-05-09T03:18:01.824Z,122.97
2024-05-09T03:20:34.045Z,121.80
2024-05-09T03:23:03.144Z,115.88
2024-05-09T03:25:30.241Z,130.65
2024-05-09T03:27:57.079Z,132.82
2024-05-09T03:30:35.875Z,114.60
2024-05-09T03:33:12.509Z,137.20
2024-05-09T03:35:40.338Z,132.48
2024-05-09T03:38:07.105Z,131.90
2024-05-09T03:40:33.802Z,123.53
2024-05-09T03:43:00.619Z,134.75
2024-05-09T03:45:27.399Z,131.43
2024-05-09T03:47:54.332Z,120.25
2024-05-09T03:50:29.535Z,139.55
2024-05-09T03:53:00.809Z,130.05
2024-05-09T03:55:27.955Z,134.18
2024-05-09T03:57:54.637Z,127.05
2024-05-09T04:00:30.682Z,127.57
2024-05-09T04:03:04.472Z,133.93
2024-05-09T04:05:32.767Z,126.65
2024-05-09T04:07:59.749Z,144.50
2024-05-09T04:10:33.620Z,129.77
2024-05-09T04:13:01.856Z,130.13
2024-05-09T04:15:28.747Z,144.48
2024-05-09T04:17:56.639Z,162.40
2024-05-09T04:20:34.273Z,208.02
2024-05-09T04:23:06.715Z,178.40
2024-05-09T04:25:33.916Z,153.85
2024-05-09T04:28:00.699Z,138.40
2024-05-09T04:30:36.379Z,152.48
2024-05-09T04:33:07.728Z,161.55
2024-05-09T04:35:36.270Z,171.98
2024-05-09T04:38:04.296Z,177.55
2024-05-09T04:40:34.616Z,206.38
2024-05-09T04:43:03.800Z,211.23
2024-05-09T04:45:30.624Z,212.88
2024-05-09T04:47:57.864Z,211.38
2024-05-09T04:50:33.367Z,212.23
2024-05-09T04:53:04.423Z,165.07
2024-05-09T04:55:33.139Z,163.18
2024-05-09T04:58:00.001Z,184.15
2024-05-09T05:00:34.698Z,170.07
2024-05-09T05:03:10.254Z,136.30
2024-05-09T05:05:42.420Z,171.90
2024-05-09T05:08:17.006Z,120.28
2024-05-09T05:10:45.140Z,122.65
2024-05-09T05:13:24.031Z,145.93
2024-05-09T05:15:58.367Z,136.27
2024-05-09T05:18:26.423Z,166.38
2024-05-09T05:20:54.883Z,258.10
2024-05-09T05:23:22.260Z,236.50
2024-05-09T05:25:49.589Z,317.02
2024-05-09T05:28:16.774Z,357.08
2024-05-09T05:30:43.529Z,357.58
2024-05-09T05:33:10.935Z,311.63
2024-05-09T05:35:38.409Z,378.10
2024-05-09T05:38:06.637Z,361.17
2024-05-09T05:40:37.022Z,361.80
2024-05-09T05:43:12.090Z,333.80
2024-05-09T05:45:39.185Z,363.83
2024-05-09T05:48:07.266Z,426.02
2024-05-09T05:50:37.253Z,392.02
2024-05-09T05:53:06.359Z,449.58
2024-05-09T05:55:33.320Z,589.33
2024-05-09T05:58:01.135Z,632.63
2024-05-09T06:00:34.783Z,743.20
2024-05-09T06:03:05.663Z,283.67
2024-05-09T06:05:32.932Z,622.92
2024-05-09T06:08:00.086Z,469.02
2024-05-09T06:10:36.978Z,491.00
2024-05-09T06:13:06.639Z,583.88
2024-05-09T06:15:33.407Z,464.00
2024-05-09T06:18:00.671Z,461.25
2024-05-09T06:20:35.064Z,467.83
2024-05-09T06:23:04.498Z,348.20
2024-05-09T06:25:31.720Z,421.08
2024-05-09T06:27:59.155Z,354.77
2024-05-09T06:30:34.472Z,366.13
2024-05-09T06:33:06.066Z,359.38
2024-05-09T06:35:33.650Z,354.30
2024-05-09T06:38:01.226Z,437.50
2024-05-09T06:40:36.473Z,368.48
2024-05-09T06:43:10.534Z,416.63
2024-05-09T06:45:39.649Z,454.33
2024-05-09T06:48:07.319Z,363.98
2024-05-09T06:50:37.861Z,572.95
2024-05-09T06:53:06.216Z,510.35
2024-05-09T06:55:33.053Z,504.60
2024-05-09T06:57:59.938Z,298.05
2024-05-09T07:00:34.814Z,346.70
2024-05-09T07:03:13.808Z,237.80
2024-05-09T07:05:43.077Z,194.70
2024-05-09T07:08:10.278Z,539.05
2024-05-09T07:10:37.583Z,216.00
2024-05-09T07:13:10.983Z,276.10
2024-05-09T07:15:38.304Z,332.27
2024-05-09T07:18:20.355Z,328.38
2024-05-09T07:20:48.559Z,286.55
2024-05-09T07:23:16.408Z,332.83
2024-05-09T07:25:43.439Z,514.17
2024-05-09T07:28:11.274Z,485.88
2024-05-09T07:30:38.063Z,386.02
2024-05-09T07:33:05.195Z,398.80
2024-05-09T07:35:32.366Z,366.92
2024-05-09T07:37:59.357Z,580.30
2024-05-09T07:40:33.186Z,339.10
2024-05-09T07:43:03.750Z,399.95
2024-05-09T07:45:47.737Z,997.33
2024-05-09T07:53:39.206Z,335.02
2024-05-09T07:56:10.116Z,410.77
2024-05-09T07:58:38.283Z,640.88
2024-05-09T08:01:07.416Z,637.22
2024-05-09T08:03:34.429Z,580.20
2024-05-09T08:06:01.566Z,504.13
2024-05-09T08:08:28.479Z,999.90
2024-05-09T08:10:55.892Z,484.70
2024-05-09T08:13:22.945Z,633.20
2024-05-09T08:15:50.067Z,450.23
2024-05-09T08:18:17.835Z,419.98
2024-05-09T08:20:48.267Z,617.90
2024-05-09T08:23:14.998Z,525.65
2024-05-09T08:25:41.723Z,999.90
2024-05-09T08:28:08.663Z,999.90
2024-05-09T08:30:37.601Z,698.80
2024-05-09T08:33:06.272Z,744.28
2024-05-09T08:35:34.214Z,923.83
2024-05-09T08:38:04.757Z,954.13
2024-05-09T08:40:36.740Z,832.38
2024-05-09T08:43:12.775Z,999.90
2024-05-09T08:45:44.088Z,997.60
2024-05-09T08:48:12.681Z,999.90
2024-05-09T08:50:43.219Z,756.58
2024-05-09T08:53:10.251Z,941.08
2024-05-09T08:55:40.644Z,999.90
2024-05-09T08:58:13.985Z,637.60
2024-05-09T09:00:41.962Z,996.40
2024-05-09T09:03:09.477Z,941.40
2024-05-09T09:05:38.114Z,998.08
2024-05-09T09:08:07.012Z,999.90
2024-05-09T09:10:34.076Z,999.90
2024-05-09T09:13:01.621Z,999.90
2024-05-09T09:15:28.383Z,783.38
2024-05-09T09:17:59.751Z,999.90
2024-05-09T09:20:34.140Z,999.90
2024-05-09T09:23:04.349Z,963.80
2024-05-09T09:25:31.656Z,944.75
2024-05-09T09:27:58.868Z,999.90
2024-05-09T09:30:36.297Z,999.90
2024-05-09T09:33:06.113Z,723.63
2024-05-09T09:35:33.940Z,999.90
2024-05-09T09:38:05.810Z,673.65
2024-05-09T09:40:40.388Z,845.55
2024-05-09T09:43:13.951Z,889.88
2024-05-09T09:45:43.219Z,852.40
2024-05-09T09:48:10.630Z,999.90
2024-05-09T09:50:37.579Z,999.90
2024-05-09T09:53:07.097Z,999.90
2024-05-09T09:55:34.828Z,727.33
2024-05-09T09:58:04.000Z,999.90
2024-05-09T10:00:33.663Z,999.90
2024-05-09T10:03:01.568Z,999.90
2024-05-09T10:05:29.554Z,999.90
2024-05-09T10:07:57.448Z,444.92
2024-05-09T10:10:31.582Z,999.90
2024-05-09T10:13:00.230Z,999.90
2024-05-09T10:15:27.452Z,999.90
2024-05-09T10:17:54.862Z,350.75
2024-05-09T10:20:28.024Z,822.42
2024-05-09T10:22:59.135Z,999.90
2024-05-09T10:25:25.893Z,999.90
2024-05-09T10:27:55.987Z,999.90
2024-05-09T10:30:29.671Z,999.90
2024-05-09T10:33:02.537Z,999.90
2024-05-09T10:35:31.118Z,999.90
2024-05-09T10:38:03.300Z,999.90
2024-05-09T10:40:31.748Z,999.90
2024-05-09T10:43:02.537Z,696.17
2024-05-09T10:45:32.054Z,999.90
2024-05-09T10:48:00.231Z,818.75
2024-05-09T10:50:31.813Z,999.90
2024-05-09T10:53:02.335Z,999.90
2024-05-09T10:55:29.201Z,999.90
2024-05-09T10:57:55.956Z,999.90
2024-05-09T11:00:27.842Z,999.90
2024-05-09T11:03:01.007Z,999.90
2024-05-09T11:05:28.140Z,999.90
2024-05-09T11:07:55.040Z,999.90
2024-05-09T11:10:27.788Z,999.90
2024-05-09T11:13:00.786Z,798.47
2024-05-09T11:15:37.705Z,233.85
2024-05-09T11:18:04.678Z,999.90
2024-05-09T11:20:35.859Z,999.90
2024-05-09T11:23:06.156Z,514.67
2024-05-09T11:25:33.321Z,320.95
2024-05-09T11:28:00.846Z,612.72
2024-05-09T11:30:31.998Z,999.90
2024-05-09T11:32:59.741Z,999.90
2024-05-09T11:35:27.052Z,999.90
2024-05-09T11:37:53.958Z,999.90
2024-05-09T11:40:25.446Z,999.90
2024-05-09T11:42:55.534Z,999.90
2024-05-09T11:45:22.625Z,999.90
2024-05-09T11:47:49.689Z,123.78
2024-05-09T11:50:26.707Z,388.38
2024-05-09T11:52:57.331Z,999.90
2024-05-09T11:55:27.765Z,830.75
2024-05-09T11:57:55.924Z,808.28
2024-05-09T12:00:33.661Z,457.98
2024-05-09T12:03:05.209Z,999.90
2024-05-09T12:05:32.860Z,999.90
2024-05-09T12:08:00.553Z,999.90
2024-05-09T12:10:33.139Z,999.90
2024-05-09T12:13:03.727Z,676.07
2024-05-09T12:15:32.017Z,999.90
2024-05-09T12:18:02.807Z,999.90
2024-05-09T12:20:36.847Z,999.90
2024-05-09T12:23:06.229Z,999.90
2024-05-09T12:25:33.149Z,999.90
2024-05-09T12:28:00.332Z,352.83
2024-05-09T12:30:35.534Z,768.90
2024-05-09T12:33:07.422Z,999.90
2024-05-09T12:35:34.312Z,999.90
2024-05-09T12:38:01.141Z,999.90
2024-05-09T12:40:35.533Z,999.90
2024-05-09T12:43:06.742Z,999.90
2024-05-09T12:45:33.768Z,515.25
2024-05-09T12:48:00.908Z,999.90
2024-05-09T12:50:32.938Z,999.90
2024-05-09T12:53:01.835Z,999.90
2024-05-09T12:55:33.787Z,999.90
2024-05-09T12:58:07.958Z,999.90
2024-05-09T13:00:34.990Z,999.90
2024-05-09T13:03:02.064Z,808.30
2024-05-09T13:05:29.685Z,238.75
2024-05-09T13:07:57.248Z,856.35
2024-05-09T13:10:31.265Z,999.90
2024-05-09T13:15:27.306Z,418.80
2024-05-09T13:17:55.817Z,999.90
2024-05-09T13:20:31.231Z,999.90
2024-05-09T13:23:01.372Z,999.90
2024-05-09T13:25:28.156Z,999.90
2024-05-09T13:27:55.375Z,769.30
2024-05-09T13:30:29.683Z,999.90
2024-05-09T13:33:05.885Z,999.90
2024-05-09T13:35:35.211Z,999.90
2024-05-09T13:38:02.856Z,999.90
2024-05-09T13:40:34.151Z,999.90
2024-05-09T13:43:03.509Z,999.90
2024-05-09T13:45:30.648Z,999.90
2024-05-09T13:47:57.690Z,999.90
2024-05-09T13:50:33.125Z,999.90
2024-05-09T13:53:02.883Z,999.90
2024-05-09T13:55:30.236Z,999.90
2024-05-09T13:57:57.125Z,999.90
2024-05-09T14:03:00.201Z,999.90
2024-05-09T14:05:27.117Z,999.90
2024-05-09T14:07:53.980Z,999.90
2024-05-09T14:10:26.206Z,999.90
2024-05-09T14:12:57.623Z,999.90
2024-05-09T14:15:24.419Z,999.90
2024-05-09T14:17:51.461Z,999.90
2024-05-09T14:20:28.231Z,999.90
2024-05-09T14:22:58.836Z,999.90
2024-05-09T14:25:28.357Z,392.15
2024-05-09T14:27:56.118Z,806.58
2024-05-09T14:30:30.663Z,999.90
2024-05-09T14:33:04.007Z,999.90
2024-05-09T14:35:31.183Z,999.90
2024-05-09T14:37:58.628Z,999.90
2024-05-09T14:40:36.856Z,999.90
2024-05-09T14:43:08.918Z,999.90
2024-05-09T14:45:35.919Z,999.90
2024-05-09T14:48:03.365Z,999.90
2024-05-09T14:50:36.209Z,999.90
2024-05-09T14:53:06.840Z,999.90
2024-05-09T14:55:39.281Z,999.90
2024-05-09T14:58:07.499Z,999.90
2024-05-09T15:00:36.598Z,769.83
2024-05-09T15:03:05.178Z,999.90
2024-05-09T15:05:32.200Z,999.90
2024-05-09T15:07:59.668Z,999.90
2024-05-09T15:10:34.091Z,791.17
2024-05-09T15:13:03.471Z,999.90
2024-05-09T15:15:31.162Z,999.90
2024-05-09T15:17:58.982Z,999.90
2024-05-09T15:20:33.137Z,999.90
2024-05-09T15:23:03.188Z,999.90
2024-05-09T15:25:30.254Z,999.90
2024-05-09T15:27:57.442Z,999.90
2024-05-09T15:30:30.452Z,999.90
2024-05-09T15:33:00.112Z,999.90
2024-05-09T15:35:27.204Z,999.90
2024-05-09T15:37:54.037Z,999.90
2024-05-09T15:40:30.618Z,999.90
2024-05-09T15:43:04.685Z,999.90
2024-05-09T15:45:32.091Z,999.90
2024-05-09T15:47:59.726Z,999.90
2024-05-09T15:50:36.383Z,999.90
2024-05-09T15:53:07.702Z,999.90
2024-05-09T15:55:35.221Z,999.90
2024-05-09T15:58:02.684Z,999.90
2024-05-09T16:00:37.425Z,999.90
2024-05-09T16:03:08.153Z,999.90
2024-05-09T16:05:35.242Z,999.90
2024-05-09T16:08:02.377Z,999.90
2024-05-09T16:10:32.788Z,999.90
2024-05-09T16:13:01.755Z,999.90
2024-05-09T16:15:28.937Z,999.90
2024-05-09T16:17:56.197Z,999.90
2024-05-09T16:22:53.086Z,999.90
2024-05-09T16:25:20.065Z,999.90
2024-05-09T16:27:47.053Z,999.90
2024-05-09T16:30:21.295Z,999.90
2024-05-09T16:32:55.127Z,999.90
2024-05-09T16:35:21.993Z,999.90
2024-05-09T16:37:49.011Z,999.90
2024-05-09T16:40:24.940Z,999.90
2024-05-09T16:43:00.143Z,999.90
2024-05-09T16:45:27.434Z,999.90
2024-05-09T16:47:54.764Z,999.90
2024-05-09T16:50:28.786Z,707.63
2024-05-09T16:52:58.902Z,680.33
2024-05-09T16:55:25.871Z,999.90
2024-05-09T16:57:52.816Z,999.90
2024-05-09T17:00:30.929Z,999.90
2024-05-09T17:03:06.411Z,999.90
2024-05-09T17:05:33.885Z,999.90
2024-05-09T17:08:01.286Z,999.90
2024-05-09T17:10:32.895Z,999.90
2024-05-09T17:13:02.472Z,999.90
2024-05-09T17:15:29.832Z,999.90
2024-05-09T17:17:56.808Z,999.90
2024-05-09T17:20:31.663Z,999.90
2024-05-09T17:23:02.492Z,999.90
2024-05-09T17:25:29.560Z,999.90
2024-05-09T17:27:57.190Z,999.90
2024-05-09T17:30:29.369Z,784.95
2024-05-09T17:33:02.738Z,865.30
2024-05-09T17:35:29.746Z,920.88
2024-05-09T17:37:56.814Z,727.05
2024-05-09T17:40:31.377Z,999.90
2024-05-09T17:43:02.670Z,829.08
2024-05-09T17:45:29.674Z,898.58
2024-05-09T17:47:56.781Z,915.15
2024-05-09T17:50:30.398Z,864.50
2024-05-09T17:53:01.635Z,902.97
2024-05-09T17:55:28.754Z,980.28
2024-05-09T17:57:55.982Z,780.50
2024-05-09T18:00:33.175Z,634.28
2024-05-09T18:03:06.228Z,519.65
2024-05-09T18:05:35.024Z,501.00
2024-05-09T18:08:02.217Z,473.15
2024-05-09T18:10:35.627Z,385.30
2024-05-09T18:13:10.277Z,371.38
2024-05-09T18:15:37.590Z,300.92
2024-05-09T18:18:05.772Z,391.92
2024-05-09T18:20:41.577Z,339.05
2024-05-09T18:23:13.248Z,367.88
2024-05-09T18:25:41.797Z,349.80
2024-05-09T18:28:08.836Z,315.33
2024-05-09T18:30:37.134Z,289.13
2024-05-09T18:33:06.462Z,278.73
2024-05-09T18:35:34.870Z,236.15
2024-05-09T18:38:01.788Z,237.27
2024-05-09T18:40:34.148Z,240.05
2024-05-09T18:43:05.853Z,248.88
2024-05-09T18:45:34.228Z,277.05
2024-05-09T18:48:01.468Z,277.60
2024-05-09T18:50:35.110Z,283.55
2024-05-09T18:53:06.183Z,282.55
2024-05-09T18:55:33.648Z,294.98
2024-05-09T18:58:03.918Z,318.83
2024-05-09T19:00:35.554Z,320.40
2024-05-09T19:03:10.515Z,299.35
2024-05-09T19:05:41.793Z,279.98
2024-05-09T19:08:10.175Z,262.58
2024-05-09T19:10:38.457Z,281.10
2024-05-09T19:13:10.199Z,304.70
2024-05-09T19:15:40.188Z,299.88
2024-05-09T19:18:11.792Z,284.35
2024-05-09T19:20:39.310Z,351.25
2024-05-09T19:23:07.297Z,368.30
2024-05-09T19:25:35.841Z,379.95
2024-05-09T19:28:03.710Z,364.98
2024-05-09T19:30:38.444Z,355.40
2024-05-09T19:33:09.207Z,321.35
2024-05-09T19:35:36.829Z,365.60
2024-05-09T19:38:03.952Z,346.95
2024-05-09T19:40:33.085Z,330.42
2024-05-09T19:43:02.857Z,326.05
2024-05-09T19:45:30.576Z,377.48
2024-05-09T19:47:57.822Z,370.98
2024-05-09T19:50:32.526Z,384.80
2024-05-09T19:53:07.571Z,366.58
2024-05-09T19:55:35.148Z,389.55
2024-05-09T19:58:04.868Z,402.85
2024-05-09T20:00:38.625Z,385.30
2024-05-09T20:03:09.770Z,380.27
2024-05-09T20:05:40.359Z,367.65
2024-05-09T20:08:07.473Z,321.65
2024-05-09T20:10:36.207Z,326.60
2024-05-09T20:13:05.197Z,345.13
2024-05-09T20:15:34.233Z,354.38
2024-05-09T20:18:01.784Z,341.63
2024-05-09T20:20:36.381Z,365.83
2024-05-09T20:23:07.138Z,407.73
2024-05-09T20:25:33.802Z,380.60
2024-05-09T20:28:00.856Z,362.15
2024-05-09T20:30:32.198Z,391.38
2024-05-09T20:33:02.456Z,378.38
2024-05-09T20:35:31.778Z,353.80
2024-05-09T20:38:00.958Z,340.10
2024-05-09T20:40:32.886Z,356.60
2024-05-09T20:43:03.435Z,358.50
2024-05-09T20:45:30.180Z,405.02
2024-05-09T20:47:57.558Z,391.17
2024-05-09T20:50:35.455Z,408.63
2024-05-09T20:53:08.326Z,390.55
2024-05-09T20:55:35.191Z,396.38
2024-05-09T20:58:01.967Z,351.75
2024-05-09T21:00:35.522Z,323.13
2024-05-09T21:03:07.591Z,312.80
2024-05-09T21:05:35.152Z,366.00
2024-05-09T21:08:02.842Z,321.65
2024-05-09T21:10:32.556Z,322.30
2024-05-09T21:13:04.376Z,398.48
2024-05-09T21:15:32.152Z,386.92
2024-05-09T21:17:59.214Z,381.60
2024-05-09T21:20:31.325Z,399.67
2024-05-09T21:22:59.542Z,385.55
2024-05-09T21:25:26.482Z,397.13
2024-05-09T21:27:54.080Z,359.83
2024-05-09T21:32:51.033Z,420.80
2024-05-09T21:35:18.246Z,349.98
2024-05-09T21:37:45.049Z,325.13
2024-05-09T21:40:16.987Z,249.48
2024-05-09T21:42:50.841Z,286.67
2024-05-09T21:45:17.845Z,320.83
2024-05-09T21:47:44.669Z,341.65
2024-05-09T21:50:22.063Z,350.90
2024-05-09T21:52:50.208Z,317.00
2024-05-09T21:55:17.028Z,308.10
2024-05-09T21:57:43.880Z,270.00
2024-05-09T22:00:20.369Z,335.00
2024-05-09T22:02:52.148Z,280.35
2024-05-09T22:05:19.067Z,387.73
2024-05-09T22:07:45.799Z,292.77
2024-05-09T22:10:20.025Z,358.58
2024-05-09T22:12:52.927Z,351.83
2024-05-09T22:15:19.766Z,304.75
2024-05-09T22:17:46.567Z,280.50
2024-05-09T22:20:21.834Z,268.15
2024-05-09T22:22:55.493Z,295.05
2024-05-09T22:25:22.345Z,271.70
2024-05-09T22:27:49.250Z,361.38
2024-05-09T22:30:23.762Z,329.35
2024-05-09T22:32:54.572Z,360.02
2024-05-09T22:35:21.321Z,377.73
2024-05-09T22:37:48.162Z,384.02
2024-05-09T22:40:20.684Z,378.92
2024-05-09T22:42:55.257Z,368.73
2024-05-09T22:45:22.000Z,378.80
2024-05-09T22:47:48.826Z,395.98
2024-05-09T22:50:26.246Z,385.98
2024-05-09T22:52:54.128Z,384.17
2024-05-09T22:55:21.114Z,366.60
2024-05-09T22:57:48.347Z,348.48
2024-05-09T23:00:16.211Z,333.88
2024-05-09T23:02:45.739Z,358.23
2024-05-09T23:05:12.812Z,351.70
2024-05-09T23:07:40.231Z,374.95
2024-05-09T23:10:13.321Z,339.42
2024-05-09T23:12:44.138Z,387.27
2024-05-09T23:15:11.003Z,362.48
2024-05-09T23:17:37.966Z,367.00
2024-05-09T23:20:06.882Z,349.13
2024-05-09T23:22:35.721Z,345.65
2024-05-09T23:25:02.631Z,364.92
2024-05-09T23:27:29.627Z,355.63
2024-05-09T23:29:56.433Z,345.23
2024-05-09T23:32:23.331Z,355.13
2024-05-09T23:34:50.209Z,351.73
2024-05-09T23:37:17.054Z,360.98
2024-05-09T23:39:44.049Z,334.88
2024-05-09T23:42:10.926Z,360.73
2024-05-09T23:44:37.674Z,346.08
2024-05-09T23:47:04.806Z,348.77
2024-05-09T23:49:32.139Z,337.15
2024-05-09T23:51:59.094Z,345.17
2024-05-09T23:54:25.999Z,313.80
2024-05-09T23:56:52.778Z,339.85
2024-05-09T23:59:19.619Z,341.45
